Toronto, Canada
Current Conditions -  °F | °C
As of 8:00 AM on Saturday 25 Oct 2014 (Local Time) from CYYZ Reporting Station
Broken Clouds Broken Clouds  
Wind Chill:   Ceiling: 25000
Heat Index:   Visibility: 8mi
Dew Point:   Wind: 7mph
Humidity: 87%   Direction: 210°SSW
Pressure: 29.78"   Gusts: NA
Location:  43.65°N, 79.39°W
Report Text: CYYZ 251200Z 21006KT 8SM FEW045 SCT100 BKN250 09/07 A2978 RMK SC1AC2CI3 SLP088
Loading
Personal Weather Stations






























Interactive Weather Map New forecast layout! Learn more

10-Day Weather Forecast

Advertisements
Track Severe Weather on mobile